sensor_id;sensor_type;location;lat;lon;timestamp;P1;durP1;ratioP1;P2;durP2;ratioP2
2840;SDS011;53423;49.224;12.074;2023-02-02T00:01:29;6.43;;;3.27;;
2840;SDS011;53423;49.224;12.074;2023-02-02T00:03:59;8.43;;;3.00;;
2840;SDS011;53423;49.224;12.074;2023-02-02T00:06:28;10.73;;;3.20;;
2840;SDS011;53423;49.224;12.074;2023-02-02T00:08:58;8.30;;;2.97;;
2840;SDS011;53423;49.224;12.074;2023-02-02T00:11:27;7.70;;;2.93;;
2840;SDS011;53423;49.224;12.074;2023-02-02T00:13:55;6.77;;;3.00;;
2840;SDS011;53423;49.224;12.074;2023-02-02T00:16:36;7.30;;;3.17;;
2840;SDS011;53423;49.224;12.074;2023-02-02T00:19:12;7.87;;;2.93;;
2840;SDS011;53423;49.224;12.074;2023-02-02T00:21:41;10.67;;;3.30;;
2840;SDS011;53423;49.224;12.074;2023-02-02T00:24:10;5.97;;;2.70;;
2840;SDS011;53423;49.224;12.074;2023-02-02T00:26:40;7.23;;;3.07;;
2840;SDS011;53423;49.224;12.074;2023-02-02T00:29:11;8.67;;;3.07;;
2840;SDS011;53423;49.224;12.074;2023-02-02T00:31:46;7.50;;;3.23;;
2840;SDS011;53423;49.224;12.074;2023-02-02T00:34:16;8.87;;;3.07;;
2840;SDS011;53423;49.224;12.074;2023-02-02T00:36:45;6.23;;;3.13;;
2840;SDS011;53423;49.224;12.074;2023-02-02T00:39:14;8.30;;;2.43;;
2840;SDS011;53423;49.224;12.074;2023-02-02T00:41:43;2.00;;;1.57;;
2840;SDS011;53423;49.224;12.074;2023-02-02T00:44:12;2.63;;;1.57;;
2840;SDS011;53423;49.224;12.074;2023-02-02T00:46:57;1.63;;;1.23;;
2840;SDS011;53423;49.224;12.074;2023-02-02T00:49:27;0.50;;;0.50;;
2840;SDS011;53423;49.224;12.074;2023-02-02T00:51:55;0.80;;;0.80;;
2840;SDS011;53423;49.224;12.074;2023-02-02T00:54:23;0.50;;;0.50;;
2840;SDS011;53423;49.224;12.074;2023-02-02T00:56:51;0.60;;;0.40;;
2840;SDS011;53423;49.224;12.074;2023-02-02T00:59:18;0.70;;;0.20;;
2840;SDS011;53423;49.224;12.074;2023-02-02T01:01:46;0.20;;;0.20;;
2840;SDS011;53423;49.224;12.074;2023-02-02T01:04:14;0.20;;;0.20;;
2840;SDS011;53423;49.224;12.074;2023-02-02T01:06:43;0.30;;;0.30;;
2840;SDS011;53423;49.224;12.074;2023-02-02T01:09:11;0.20;;;0.20;;
2840;SDS011;53423;49.224;12.074;2023-02-02T01:11:40;0.10;;;0.10;;
2840;SDS011;53423;49.224;12.074;2023-02-02T01:14:08;0.20;;;0.20;;
2840;SDS011;53423;49.224;12.074;2023-02-02T01:16:35;1.07;;;0.10;;
2840;SDS011;53423;49.224;12.074;2023-02-02T01:19:03;0.30;;;0.30;;
2840;SDS011;53423;49.224;12.074;2023-02-02T01:21:31;0.10;;;0.10;;
2840;SDS011;53423;49.224;12.074;2023-02-02T01:24:00;0.30;;;0.10;;
2840;SDS011;53423;49.224;12.074;2023-02-02T01:26:28;0.13;;;0.13;;
2840;SDS011;53423;49.224;12.074;2023-02-02T01:28:56;0.10;;;0.10;;
2840;SDS011;53423;49.224;12.074;2023-02-02T01:31:24;0.20;;;0.20;;
2840;SDS011;53423;49.224;12.074;2023-02-02T01:33:52;0.20;;;0.20;;
2840;SDS011;53423;49.224;12.074;2023-02-02T01:36:21;0.20;;;0.20;;
2840;SDS011;53423;49.224;12.074;2023-02-02T01:38:50;0.30;;;0.30;;
2840;SDS011;53423;49.224;12.074;2023-02-02T01:41:21;0.10;;;0.10;;
2840;SDS011;53423;49.224;12.074;2023-02-02T01:43:51;0.10;;;0.10;;
2840;SDS011;53423;49.224;12.074;2023-02-02T01:46:22;0.27;;;0.20;;
2840;SDS011;53423;49.224;12.074;2023-02-02T01:48:53;0.10;;;0.03;;
2840;SDS011;53423;49.224;12.074;2023-02-02T01:51:28;0.20;;;0.20;;
2840;SDS011;53423;49.224;12.074;2023-02-02T01:54:04;0.83;;;0.20;;
2840;SDS011;53423;49.224;12.074;2023-02-02T01:56:38;0.10;;;0.10;;
2840;SDS011;53423;49.224;12.074;2023-02-02T01:59:12;0.20;;;0.20;;
2840;SDS011;53423;49.224;12.074;2023-02-02T02:01:42;0.20;;;0.20;;
2840;SDS011;53423;49.224;12.074;2023-02-02T02:04:12;0.30;;;0.30;;
2840;SDS011;53423;49.224;12.074;2023-02-02T02:06:41;0.20;;;0.20;;
2840;SDS011;53423;49.224;12.074;2023-02-02T02:09:10;0.10;;;0.10;;
2840;SDS011;53423;49.224;12.074;2023-02-02T02:11:39;0.10;;;0.10;;
2840;SDS011;53423;49.224;12.074;2023-02-02T02:14:08;0.10;;;0.10;;
2840;SDS011;53423;49.224;12.074;2023-02-02T02:27:10;0.20;;;0.20;;
2840;SDS011;53423;49.224;12.074;2023-02-02T02:29:59;0.27;;;0.20;;
2840;SDS011;53423;49.224;12.074;2023-02-02T02:32:54;0.33;;;0.33;;
2840;SDS011;53423;49.224;12.074;2023-02-02T02:35:30;0.10;;;0.10;;
2840;SDS011;53423;49.224;12.074;2023-02-02T02:38:03;0.23;;;0.23;;
2840;SDS011;53423;49.224;12.074;2023-02-02T02:40:39;0.20;;;0.20;;
2840;SDS011;53423;49.224;12.074;2023-02-02T02:43:12;0.43;;;0.10;;
2840;SDS011;53423;49.224;12.074;2023-02-02T02:45:45;0.20;;;0.20;;
2840;SDS011;53423;49.224;12.074;2023-02-02T02:48:14;0.60;;;0.23;;
2840;SDS011;53423;49.224;12.074;2023-02-02T02:50:42;0.20;;;0.20;;
2840;SDS011;53423;49.224;12.074;2023-02-02T02:53:12;0.20;;;0.20;;
2840;SDS011;53423;49.224;12.074;2023-02-02T02:55:45;0.20;;;0.20;;
2840;SDS011;53423;49.224;12.074;2023-02-02T02:58:19;0.20;;;0.20;;
2840;SDS011;53423;49.224;12.074;2023-02-02T03:00:56;0.53;;;0.53;;
2840;SDS011;53423;49.224;12.074;2023-02-02T03:03:35;0.30;;;0.30;;
2840;SDS011;53423;49.224;12.074;2023-02-02T03:06:20;0.20;;;0.20;;
2840;SDS011;53423;49.224;12.074;2023-02-02T03:08:53;0.30;;;0.30;;
2840;SDS011;53423;49.224;12.074;2023-02-02T03:11:26;0.50;;;0.23;;
2840;SDS011;53423;49.224;12.074;2023-02-02T03:13:54;0.97;;;0.40;;
2840;SDS011;53423;49.224;12.074;2023-02-02T03:16:22;0.37;;;0.37;;
2840;SDS011;53423;49.224;12.074;2023-02-02T03:18:52;0.40;;;0.40;;
2840;SDS011;53423;49.224;12.074;2023-02-02T03:21:21;0.30;;;0.30;;
2840;SDS011;53423;49.224;12.074;2023-02-02T03:23:49;0.10;;;0.10;;
2840;SDS011;53423;49.224;12.074;2023-02-02T03:26:17;0.20;;;0.20;;
2840;SDS011;53423;49.224;12.074;2023-02-02T03:28:45;0.20;;;0.20;;
2840;SDS011;53423;49.224;12.074;2023-02-02T03:31:13;0.47;;;0.47;;
2840;SDS011;53423;49.224;12.074;2023-02-02T03:33:41;0.37;;;0.37;;
2840;SDS011;53423;49.224;12.074;2023-02-02T03:36:11;0.40;;;0.40;;
2840;SDS011;53423;49.224;12.074;2023-02-02T03:38:39;0.30;;;0.30;;
2840;SDS011;53423;49.224;12.074;2023-02-02T03:41:06;0.20;;;0.20;;
2840;SDS011;53423;49.224;12.074;2023-02-02T03:43:34;0.30;;;0.30;;
2840;SDS011;53423;49.224;12.074;2023-02-02T03:46:03;1.70;;;0.50;;
2840;SDS011;53423;49.224;12.074;2023-02-02T03:48:33;0.10;;;0.10;;
2840;SDS011;53423;49.224;12.074;2023-02-02T03:51:04;0.33;;;0.20;;
2840;SDS011;53423;49.224;12.074;2023-02-02T03:53:34;0.43;;;0.30;;
2840;SDS011;53423;49.224;12.074;2023-02-02T03:56:02;0.20;;;0.20;;
2840;SDS011;53423;49.224;12.074;2023-02-02T03:58:31;0.47;;;0.20;;
2840;SDS011;53423;49.224;12.074;2023-02-02T04:01:01;0.20;;;0.20;;
2840;SDS011;53423;49.224;12.074;2023-02-02T04:03:30;0.27;;;0.13;;
2840;SDS011;53423;49.224;12.074;2023-02-02T04:05:58;0.20;;;0.20;;
2840;SDS011;53423;49.224;12.074;2023-02-02T04:08:26;0.10;;;0.10;;
2840;SDS011;53423;49.224;12.074;2023-02-02T04:10:56;0.10;;;0.10;;
2840;SDS011;53423;49.224;12.074;2023-02-02T04:13:24;0.10;;;0.10;;
2840;SDS011;53423;49.224;12.074;2023-02-02T04:15:56;0.67;;;0.30;;
2840;SDS011;53423;49.224;12.074;2023-02-02T04:18:25;0.30;;;0.30;;
2840;SDS011;53423;49.224;12.074;2023-02-02T04:20:56;0.30;;;0.30;;
2840;SDS011;53423;49.224;12.074;2023-02-02T04:23:26;0.33;;;0.30;;
2840;SDS011;53423;49.224;12.074;2023-02-02T04:25:56;0.30;;;0.30;;
2840;SDS011;53423;49.224;12.074;2023-02-02T04:28:25;0.50;;;0.30;;
2840;SDS011;53423;49.224;12.074;2023-02-02T04:30:54;0.63;;;0.40;;
2840;SDS011;53423;49.224;12.074;2023-02-02T04:33:23;0.40;;;0.40;;
2840;SDS011;53423;49.224;12.074;2023-02-02T04:35:52;0.50;;;0.30;;
2840;SDS011;53423;49.224;12.074;2023-02-02T04:38:20;0.20;;;0.20;;
2840;SDS011;53423;49.224;12.074;2023-02-02T04:40:49;0.30;;;0.20;;
2840;SDS011;53423;49.224;12.074;2023-02-02T04:43:18;0.40;;;0.40;;
2840;SDS011;53423;49.224;12.074;2023-02-02T04:45:46;0.50;;;0.33;;
2840;SDS011;53423;49.224;12.074;2023-02-02T04:48:15;0.40;;;0.40;;
2840;SDS011;53423;49.224;12.074;2023-02-02T04:50:43;0.30;;;0.30;;
2840;SDS011;53423;49.224;12.074;2023-02-02T04:53:11;0.60;;;0.30;;
2840;SDS011;53423;49.224;12.074;2023-02-02T04:55:39;0.30;;;0.30;;
2840;SDS011;53423;49.224;12.074;2023-02-02T04:58:07;0.93;;;0.43;;
2840;SDS011;53423;49.224;12.074;2023-02-02T05:00:36;1.10;;;0.53;;
2840;SDS011;53423;49.224;12.074;2023-02-02T05:03:04;0.90;;;0.90;;
2840;SDS011;53423;49.224;12.074;2023-02-02T05:05:32;1.20;;;1.10;;
2840;SDS011;53423;49.224;12.074;2023-02-02T05:07:59;0.63;;;0.63;;
2840;SDS011;53423;49.224;12.074;2023-02-02T05:10:27;0.60;;;0.60;;
2840;SDS011;53423;49.224;12.074;2023-02-02T05:12:55;2.10;;;1.03;;
2840;SDS011;53423;49.224;12.074;2023-02-02T05:15:23;0.93;;;0.50;;
2840;SDS011;53423;49.224;12.074;2023-02-02T05:17:53;1.93;;;0.90;;
2840;SDS011;53423;49.224;12.074;2023-02-02T05:20:20;1.43;;;1.00;;
2840;SDS011;53423;49.224;12.074;2023-02-02T05:22:48;1.27;;;0.60;;
2840;SDS011;53423;49.224;12.074;2023-02-02T05:25:16;0.50;;;0.50;;
2840;SDS011;53423;49.224;12.074;2023-02-02T05:27:44;0.90;;;0.70;;
2840;SDS011;53423;49.224;12.074;2023-02-02T05:30:13;1.07;;;0.90;;
2840;SDS011;53423;49.224;12.074;2023-02-02T05:32:41;1.53;;;1.40;;
2840;SDS011;53423;49.224;12.074;2023-02-02T05:35:10;0.90;;;0.90;;
2840;SDS011;53423;49.224;12.074;2023-02-02T05:37:39;1.87;;;1.20;;
2840;SDS011;53423;49.224;12.074;2023-02-02T05:40:09;1.10;;;0.93;;
2840;SDS011;53423;49.224;12.074;2023-02-02T05:42:38;1.40;;;0.87;;
2840;SDS011;53423;49.224;12.074;2023-02-02T05:45:06;1.90;;;1.00;;
2840;SDS011;53423;49.224;12.074;2023-02-02T05:47:34;1.10;;;1.00;;
2840;SDS011;53423;49.224;12.074;2023-02-02T05:50:02;1.63;;;1.50;;
2840;SDS011;53423;49.224;12.074;2023-02-02T05:52:31;1.87;;;1.20;;
2840;SDS011;53423;49.224;12.074;2023-02-02T05:55:01;1.27;;;1.17;;
2840;SDS011;53423;49.224;12.074;2023-02-02T05:57:30;0.77;;;0.67;;
2840;SDS011;53423;49.224;12.074;2023-02-02T05:59:58;1.10;;;0.83;;
2840;SDS011;53423;49.224;12.074;2023-02-02T06:02:26;1.80;;;1.40;;
2840;SDS011;53423;49.224;12.074;2023-02-02T06:04:54;1.97;;;1.87;;
2840;SDS011;53423;49.224;12.074;2023-02-02T06:07:21;2.03;;;1.67;;
2840;SDS011;53423;49.224;12.074;2023-02-02T06:09:51;2.40;;;1.47;;
2840;SDS011;53423;49.224;12.074;2023-02-02T06:12:19;1.87;;;1.77;;
2840;SDS011;53423;49.224;12.074;2023-02-02T06:14:46;2.20;;;2.00;;
2840;SDS011;53423;49.224;12.074;2023-02-02T06:17:14;2.33;;;1.33;;
2840;SDS011;53423;49.224;12.074;2023-02-02T06:19:42;1.23;;;1.13;;
2840;SDS011;53423;49.224;12.074;2023-02-02T06:22:10;2.90;;;2.70;;
2840;SDS011;53423;49.224;12.074;2023-02-02T06:24:38;1.30;;;1.20;;
2840;SDS011;53423;49.224;12.074;2023-02-02T06:27:07;1.17;;;1.17;;
2840;SDS011;53423;49.224;12.074;2023-02-02T06:29:35;1.53;;;1.43;;
2840;SDS011;53423;49.224;12.074;2023-02-02T06:32:03;2.20;;;2.00;;
2840;SDS011;53423;49.224;12.074;2023-02-02T06:34:31;2.67;;;1.40;;
2840;SDS011;53423;49.224;12.074;2023-02-02T06:36:59;1.30;;;1.20;;
2840;SDS011;53423;49.224;12.074;2023-02-02T06:39:27;1.47;;;1.37;;
2840;SDS011;53423;49.224;12.074;2023-02-02T06:41:55;1.30;;;1.20;;
2840;SDS011;53423;49.224;12.074;2023-02-02T06:44:27;1.00;;;1.00;;
2840;SDS011;53423;49.224;12.074;2023-02-02T06:46:55;1.07;;;1.03;;
2840;SDS011;53423;49.224;12.074;2023-02-02T06:49:23;1.10;;;1.07;;
2840;SDS011;53423;49.224;12.074;2023-02-02T06:51:51;1.00;;;1.00;;
2840;SDS011;53423;49.224;12.074;2023-02-02T06:54:19;1.63;;;1.40;;
2840;SDS011;53423;49.224;12.074;2023-02-02T06:56:47;1.20;;;1.17;;
2840;SDS011;53423;49.224;12.074;2023-02-02T06:59:15;1.33;;;1.27;;
2840;SDS011;53423;49.224;12.074;2023-02-02T07:01:44;2.00;;;1.20;;
2840;SDS011;53423;49.224;12.074;2023-02-02T07:04:15;1.60;;;1.50;;
2840;SDS011;53423;49.224;12.074;2023-02-02T07:06:43;1.70;;;1.60;;
2840;SDS011;53423;49.224;12.074;2023-02-02T07:09:11;1.87;;;1.77;;
2840;SDS011;53423;49.224;12.074;2023-02-02T07:11:39;2.03;;;1.83;;
2840;SDS011;53423;49.224;12.074;2023-02-02T07:14:10;2.13;;;1.97;;
2840;SDS011;53423;49.224;12.074;2023-02-02T07:16:38;2.63;;;1.97;;
2840;SDS011;53423;49.224;12.074;2023-02-02T07:19:08;2.17;;;2.00;;
2840;SDS011;53423;49.224;12.074;2023-02-02T07:21:36;2.20;;;2.00;;
2840;SDS011;53423;49.224;12.074;2023-02-02T07:24:04;3.10;;;2.30;;
2840;SDS011;53423;49.224;12.074;2023-02-02T07:26:33;2.47;;;2.27;;
2840;SDS011;53423;49.224;12.074;2023-02-02T07:29:02;2.67;;;2.47;;
2840;SDS011;53423;49.224;12.074;2023-02-02T07:31:30;1.40;;;1.30;;
2840;SDS011;53423;49.224;12.074;2023-02-02T07:34:01;1.50;;;1.40;;
2840;SDS011;53423;49.224;12.074;2023-02-02T07:36:31;1.30;;;1.20;;
2840;SDS011;53423;49.224;12.074;2023-02-02T07:38:59;1.60;;;1.50;;
2840;SDS011;53423;49.224;12.074;2023-02-02T07:41:30;1.40;;;1.30;;
2840;SDS011;53423;49.224;12.074;2023-02-02T07:43:59;1.70;;;1.50;;
2840;SDS011;53423;49.224;12.074;2023-02-02T07:46:28;1.43;;;1.33;;
2840;SDS011;53423;49.224;12.074;2023-02-02T07:48:56;1.87;;;1.67;;
2840;SDS011;53423;49.224;12.074;2023-02-02T07:51:24;2.30;;;2.10;;
2840;SDS011;53423;49.224;12.074;2023-02-02T07:53:54;1.50;;;1.40;;
2840;SDS011;53423;49.224;12.074;2023-02-02T07:56:24;2.00;;;1.90;;
2840;SDS011;53423;49.224;12.074;2023-02-02T07:58:53;3.23;;;3.03;;
2840;SDS011;53423;49.224;12.074;2023-02-02T08:01:22;2.43;;;2.23;;
2840;SDS011;53423;49.224;12.074;2023-02-02T08:03:51;2.27;;;2.07;;
2840;SDS011;53423;49.224;12.074;2023-02-02T08:06:21;2.93;;;2.30;;
2840;SDS011;53423;49.224;12.074;2023-02-02T08:08:50;2.13;;;1.93;;
2840;SDS011;53423;49.224;12.074;2023-02-02T08:11:20;2.73;;;1.80;;
2840;SDS011;53423;49.224;12.074;2023-02-02T08:13:50;2.50;;;1.23;;
2840;SDS011;53423;49.224;12.074;2023-02-02T08:16:19;1.40;;;1.30;;
2840;SDS011;53423;49.224;12.074;2023-02-02T08:18:48;2.17;;;1.97;;
2840;SDS011;53423;49.224;12.074;2023-02-02T08:21:16;2.50;;;2.30;;
2840;SDS011;53423;49.224;12.074;2023-02-02T08:23:45;2.07;;;1.80;;
2840;SDS011;53423;49.224;12.074;2023-02-02T08:26:15;1.97;;;1.43;;
2840;SDS011;53423;49.224;12.074;2023-02-02T08:28:46;2.33;;;2.00;;
2840;SDS011;53423;49.224;12.074;2023-02-02T08:31:16;3.13;;;2.53;;
2840;SDS011;53423;49.224;12.074;2023-02-02T08:33:46;3.50;;;2.87;;
2840;SDS011;53423;49.224;12.074;2023-02-02T08:36:15;2.80;;;2.20;;
2840;SDS011;53423;49.224;12.074;2023-02-02T08:38:44;3.30;;;1.87;;
2840;SDS011;53423;49.224;12.074;2023-02-02T08:41:13;4.37;;;2.70;;
2840;SDS011;53423;49.224;12.074;2023-02-02T08:43:42;6.27;;;4.00;;
2840;SDS011;53423;49.224;12.074;2023-02-02T08:46:13;6.37;;;4.60;;
2840;SDS011;53423;49.224;12.074;2023-02-02T08:48:43;2.67;;;2.30;;
2840;SDS011;53423;49.224;12.074;2023-02-02T08:51:11;1.93;;;1.73;;
2840;SDS011;53423;49.224;12.074;2023-02-02T08:53:40;2.37;;;1.97;;
2840;SDS011;53423;49.224;12.074;2023-02-02T08:56:09;1.73;;;1.40;;
2840;SDS011;53423;49.224;12.074;2023-02-02T08:58:38;2.37;;;2.17;;
2840;SDS011;53423;49.224;12.074;2023-02-02T09:01:10;3.23;;;2.77;;
2840;SDS011;53423;49.224;12.074;2023-02-02T09:03:42;1.97;;;1.70;;
2840;SDS011;53423;49.224;12.074;2023-02-02T09:06:11;3.13;;;2.47;;
2840;SDS011;53423;49.224;12.074;2023-02-02T09:08:40;2.70;;;2.50;;
2840;SDS011;53423;49.224;12.074;2023-02-02T09:11:09;3.87;;;2.80;;
2840;SDS011;53423;49.224;12.074;2023-02-02T09:13:39;4.33;;;3.37;;
2840;SDS011;53423;49.224;12.074;2023-02-02T09:16:08;2.73;;;2.43;;
2840;SDS011;53423;49.224;12.074;2023-02-02T09:18:39;2.60;;;2.40;;
2840;SDS011;53423;49.224;12.074;2023-02-02T09:21:08;2.20;;;2.00;;
2840;SDS011;53423;49.224;12.074;2023-02-02T09:23:38;1.67;;;1.57;;
2840;SDS011;53423;49.224;12.074;2023-02-02T09:26:08;2.67;;;2.13;;
2840;SDS011;53423;49.224;12.074;2023-02-02T09:28:37;3.50;;;2.93;;
2840;SDS011;53423;49.224;12.074;2023-02-02T09:31:06;2.93;;;2.50;;
2840;SDS011;53423;49.224;12.074;2023-02-02T09:33:35;3.40;;;2.70;;
2840;SDS011;53423;49.224;12.074;2023-02-02T09:36:05;3.40;;;2.60;;
2840;SDS011;53423;49.224;12.074;2023-02-02T09:38:38;3.57;;;2.30;;
2840;SDS011;53423;49.224;12.074;2023-02-02T09:41:13;3.00;;;2.73;;
2840;SDS011;53423;49.224;12.074;2023-02-02T09:44:01;3.40;;;3.10;;
2840;SDS011;53423;49.224;12.074;2023-02-02T09:46:40;3.73;;;3.43;;
2840;SDS011;53423;49.224;12.074;2023-02-02T09:49:27;4.83;;;4.40;;
2840;SDS011;53423;49.224;12.074;2023-02-02T09:52:05;4.73;;;4.33;;
2840;SDS011;53423;49.224;12.074;2023-02-02T09:54:40;4.50;;;4.10;;
2840;SDS011;53423;49.224;12.074;2023-02-02T09:57:12;4.90;;;4.50;;
2840;SDS011;53423;49.224;12.074;2023-02-02T09:59:46;3.73;;;3.43;;
2840;SDS011;53423;49.224;12.074;2023-02-02T10:02:17;3.60;;;3.23;;
2840;SDS011;53423;49.224;12.074;2023-02-02T10:04:49;3.33;;;3.10;;
2840;SDS011;53423;49.224;12.074;2023-02-02T10:07:22;4.10;;;3.30;;
2840;SDS011;53423;49.224;12.074;2023-02-02T10:09:56;3.87;;;3.30;;
2840;SDS011;53423;49.224;12.074;2023-02-02T10:12:29;4.13;;;3.83;;
2840;SDS011;53423;49.224;12.074;2023-02-02T10:15:03;3.67;;;3.37;;
2840;SDS011;53423;49.224;12.074;2023-02-02T10:17:39;4.70;;;4.30;;
2840;SDS011;53423;49.224;12.074;2023-02-02T10:20:16;5.53;;;4.87;;
2840;SDS011;53423;49.224;12.074;2023-02-02T10:23:02;5.47;;;4.97;;
2840;SDS011;53423;49.224;12.074;2023-02-02T10:25:38;6.27;;;5.57;;
2840;SDS011;53423;49.224;12.074;2023-02-02T10:28:16;5.73;;;5.23;;
2840;SDS011;53423;49.224;12.074;2023-02-02T10:30:46;5.33;;;4.83;;
2840;SDS011;53423;49.224;12.074;2023-02-02T10:33:24;4.37;;;3.97;;
2840;SDS011;53423;49.224;12.074;2023-02-02T10:35:59;4.77;;;4.37;;
2840;SDS011;53423;49.224;12.074;2023-02-02T10:38:38;5.23;;;4.83;;
2840;SDS011;53423;49.224;12.074;2023-02-02T10:41:17;5.23;;;4.80;;
2840;SDS011;53423;49.224;12.074;2023-02-02T10:43:56;5.03;;;4.63;;
2840;SDS011;53423;49.224;12.074;2023-02-02T10:46:37;5.70;;;5.20;;
2840;SDS011;53423;49.224;12.074;2023-02-02T10:49:12;5.17;;;4.67;;
2840;SDS011;53423;49.224;12.074;2023-02-02T10:51:48;7.00;;;6.40;;
2840;SDS011;53423;49.224;12.074;2023-02-02T10:54:28;7.80;;;6.00;;
2840;SDS011;53423;49.224;12.074;2023-02-02T10:57:23;6.07;;;5.47;;
2840;SDS011;53423;49.224;12.074;2023-02-02T11:00:05;6.20;;;5.70;;
2840;SDS011;53423;49.224;12.074;2023-02-02T11:02:42;5.40;;;4.90;;
2840;SDS011;53423;49.224;12.074;2023-02-02T11:05:11;5.40;;;5.00;;
2840;SDS011;53423;49.224;12.074;2023-02-02T11:08:01;4.53;;;4.20;;
2840;SDS011;53423;49.224;12.074;2023-02-02T11:10:32;5.00;;;4.50;;
2840;SDS011;53423;49.224;12.074;2023-02-02T11:13:01;4.33;;;3.97;;
2840;SDS011;53423;49.224;12.074;2023-02-02T11:15:29;4.47;;;4.17;;
2840;SDS011;53423;49.224;12.074;2023-02-02T11:18:04;4.57;;;4.20;;
2840;SDS011;53423;49.224;12.074;2023-02-02T11:20:41;4.90;;;4.50;;
2840;SDS011;53423;49.224;12.074;2023-02-02T11:23:15;4.53;;;4.13;;
2840;SDS011;53423;49.224;12.074;2023-02-02T11:25:46;5.47;;;5.00;;
2840;SDS011;53423;49.224;12.074;2023-02-02T11:28:24;5.70;;;5.20;;
2840;SDS011;53423;49.224;12.074;2023-02-02T11:30:56;5.47;;;5.00;;
2840;SDS011;53423;49.224;12.074;2023-02-02T11:33:26;5.80;;;5.30;;
2840;SDS011;53423;49.224;12.074;2023-02-02T11:35:56;7.93;;;7.17;;
2840;SDS011;53423;49.224;12.074;2023-02-02T11:38:26;9.00;;;8.00;;
2840;SDS011;53423;49.224;12.074;2023-02-02T11:40:57;9.20;;;8.40;;
2840;SDS011;53423;49.224;12.074;2023-02-02T11:43:30;8.03;;;7.33;;
2840;SDS011;53423;49.224;12.074;2023-02-02T11:46:12;8.57;;;7.77;;
2840;SDS011;53423;49.224;12.074;2023-02-02T11:48:47;10.60;;;9.43;;
2840;SDS011;53423;49.224;12.074;2023-02-02T11:51:20;9.00;;;8.30;;
2840;SDS011;53423;49.224;12.074;2023-02-02T11:53:50;8.80;;;8.00;;
2840;SDS011;53423;49.224;12.074;2023-02-02T11:56:30;6.27;;;5.77;;
2840;SDS011;53423;49.224;12.074;2023-02-02T11:59:01;5.53;;;5.13;;
2840;SDS011;53423;49.224;12.074;2023-02-02T12:01:31;5.13;;;4.67;;
2840;SDS011;53423;49.224;12.074;2023-02-02T12:04:01;5.40;;;4.90;;
2840;SDS011;53423;49.224;12.074;2023-02-02T12:06:33;5.57;;;5.17;;
2840;SDS011;53423;49.224;12.074;2023-02-02T12:09:08;7.27;;;6.53;;
2840;SDS011;53423;49.224;12.074;2023-02-02T12:11:42;6.73;;;6.13;;
2840;SDS011;53423;49.224;12.074;2023-02-02T12:14:26;7.90;;;7.20;;
2840;SDS011;53423;49.224;12.074;2023-02-02T12:17:06;7.33;;;6.73;;
2840;SDS011;53423;49.224;12.074;2023-02-02T12:22:49;7.93;;;7.23;;
2840;SDS011;53423;49.224;12.074;2023-02-02T12:28:40;8.43;;;7.57;;
2840;SDS011;53423;49.224;12.074;2023-02-02T12:31:27;8.23;;;7.43;;
2840;SDS011;53423;49.224;12.074;2023-02-02T12:34:06;7.87;;;7.17;;
2840;SDS011;53423;49.224;12.074;2023-02-02T12:36:41;8.50;;;7.70;;
2840;SDS011;53423;49.224;12.074;2023-02-02T12:39:20;8.13;;;7.43;;
2840;SDS011;53423;49.224;12.074;2023-02-02T12:42:06;9.23;;;8.43;;
2840;SDS011;53423;49.224;12.074;2023-02-02T12:45:05;7.30;;;6.70;;
2840;SDS011;53423;49.224;12.074;2023-02-02T12:48:00;7.33;;;6.73;;
2840;SDS011;53423;49.224;12.074;2023-02-02T12:50:38;7.63;;;6.97;;
2840;SDS011;53423;49.224;12.074;2023-02-02T12:53:19;6.87;;;6.27;;
2840;SDS011;53423;49.224;12.074;2023-02-02T12:55:59;7.30;;;6.70;;
2840;SDS011;53423;49.224;12.074;2023-02-02T12:58:34;7.70;;;6.90;;
2840;SDS011;53423;49.224;12.074;2023-02-02T13:01:13;7.87;;;7.07;;
2840;SDS011;53423;49.224;12.074;2023-02-02T13:03:53;7.27;;;6.67;;
2840;SDS011;53423;49.224;12.074;2023-02-02T13:09:39;10.67;;;9.73;;
2840;SDS011;53423;49.224;12.074;2023-02-02T13:12:17;9.70;;;8.90;;
2840;SDS011;53423;49.224;12.074;2023-02-02T13:14:49;10.13;;;9.23;;
2840;SDS011;53423;49.224;12.074;2023-02-02T13:17:24;11.67;;;10.67;;
2840;SDS011;53423;49.224;12.074;2023-02-02T13:19:56;13.17;;;11.97;;
2840;SDS011;53423;49.224;12.074;2023-02-02T13:22:30;12.07;;;10.93;;
2840;SDS011;53423;49.224;12.074;2023-02-02T13:25:01;9.50;;;8.73;;
2840;SDS011;53423;49.224;12.074;2023-02-02T13:27:33;9.57;;;8.77;;
2840;SDS011;53423;49.224;12.074;2023-02-02T13:30:04;9.07;;;8.27;;
2840;SDS011;53423;49.224;12.074;2023-02-02T13:32:41;8.23;;;7.53;;
2840;SDS011;53423;49.224;12.074;2023-02-02T13:35:14;8.27;;;7.53;;
2840;SDS011;53423;49.224;12.074;2023-02-02T13:37:46;8.93;;;8.23;;
2840;SDS011;53423;49.224;12.074;2023-02-02T13:40:22;8.23;;;7.53;;
2840;SDS011;53423;49.224;12.074;2023-02-02T13:42:55;8.80;;;8.00;;
2840;SDS011;53423;49.224;12.074;2023-02-02T13:45:35;8.60;;;7.90;;
2840;SDS011;53423;49.224;12.074;2023-02-02T13:48:16;9.17;;;8.37;;
2840;SDS011;53423;49.224;12.074;2023-02-02T13:50:57;11.90;;;10.93;;
2840;SDS011;53423;49.224;12.074;2023-02-02T13:53:49;10.40;;;9.50;;
2840;SDS011;53423;49.224;12.074;2023-02-02T13:56:41;11.17;;;10.27;;
2840;SDS011;53423;49.224;12.074;2023-02-02T13:59:25;21.10;;;18.90;;
2840;SDS011;53423;49.224;12.074;2023-02-02T14:02:16;20.17;;;17.27;;
2840;SDS011;53423;49.224;12.074;2023-02-02T14:08:48;17.00;;;15.30;;
2840;SDS011;53423;49.224;12.074;2023-02-02T14:11:20;15.97;;;14.37;;
2840;SDS011;53423;49.224;12.074;2023-02-02T14:13:51;13.63;;;12.33;;
2840;SDS011;53423;49.224;12.074;2023-02-02T14:16:43;11.73;;;10.63;;
2840;SDS011;53423;49.224;12.074;2023-02-02T14:19:13;10.73;;;9.73;;
2840;SDS011;53423;49.224;12.074;2023-02-02T14:21:59;9.40;;;8.60;;
2840;SDS011;53423;49.224;12.074;2023-02-02T14:24:38;10.67;;;9.67;;
2840;SDS011;53423;49.224;12.074;2023-02-02T14:30:30;9.10;;;8.20;;
2840;SDS011;53423;49.224;12.074;2023-02-02T14:35:55;7.40;;;6.80;;
2840;SDS011;53423;49.224;12.074;2023-02-02T14:38:33;6.13;;;5.57;;
2840;SDS011;53423;49.224;12.074;2023-02-02T14:41:35;5.30;;;4.43;;
2840;SDS011;53423;49.224;12.074;2023-02-02T14:44:30;4.67;;;4.27;;
2840;SDS011;53423;49.224;12.074;2023-02-02T14:50:10;4.03;;;3.63;;
2840;SDS011;53423;49.224;12.074;2023-02-02T14:52:40;3.80;;;3.50;;
2840;SDS011;53423;49.224;12.074;2023-02-02T14:55:15;3.83;;;3.53;;
2840;SDS011;53423;49.224;12.074;2023-02-02T14:57:52;4.00;;;3.70;;
2840;SDS011;53423;49.224;12.074;2023-02-02T15:00:23;3.93;;;3.63;;
2840;SDS011;53423;49.224;12.074;2023-02-02T15:02:54;3.30;;;3.10;;
2840;SDS011;53423;49.224;12.074;2023-02-02T15:08:13;4.53;;;4.13;;
2840;SDS011;53423;49.224;12.074;2023-02-02T15:10:58;3.67;;;3.37;;
2840;SDS011;53423;49.224;12.074;2023-02-02T15:13:54;2.97;;;2.73;;
2840;SDS011;53423;49.224;12.074;2023-02-02T15:16:32;3.07;;;2.67;;
2840;SDS011;53423;49.224;12.074;2023-02-02T15:19:05;3.53;;;2.80;;
2840;SDS011;53423;49.224;12.074;2023-02-02T15:21:40;7.17;;;4.67;;
2840;SDS011;53423;49.224;12.074;2023-02-02T15:24:14;6.33;;;4.23;;
2840;SDS011;53423;49.224;12.074;2023-02-02T15:26:46;7.77;;;4.33;;
2840;SDS011;53423;49.224;12.074;2023-02-02T15:29:18;6.93;;;4.27;;
2840;SDS011;53423;49.224;12.074;2023-02-02T15:31:54;3.97;;;2.80;;
2840;SDS011;53423;49.224;12.074;2023-02-02T15:34:23;3.50;;;3.00;;
2840;SDS011;53423;49.224;12.074;2023-02-02T15:36:55;2.67;;;2.47;;
2840;SDS011;53423;49.224;12.074;2023-02-02T15:39:30;1.90;;;1.80;;
2840;SDS011;53423;49.224;12.074;2023-02-02T15:42:00;2.13;;;1.93;;
2840;SDS011;53423;49.224;12.074;2023-02-02T15:44:50;3.20;;;2.90;;
2840;SDS011;53423;49.224;12.074;2023-02-02T15:47:19;5.80;;;5.30;;
2840;SDS011;53423;49.224;12.074;2023-02-02T15:49:54;7.10;;;6.40;;
2840;SDS011;53423;49.224;12.074;2023-02-02T15:52:25;4.70;;;4.30;;